sensor_id;sensor_type;location;lat;lon;timestamp;pressure;altitude;pressure_sealevel;temperature;humidity
76108;BME280;64834;52.516;10.528;2023-07-02T00:01:02;99843.53;;;15.06;100.00
76108;BME280;64834;52.516;10.528;2023-07-02T00:03:27;99843.56;;;15.08;100.00
76108;BME280;64834;52.516;10.528;2023-07-02T00:05:52;99844.50;;;15.10;100.00
76108;BME280;64834;52.516;10.528;2023-07-02T00:08:22;99845.53;;;15.17;100.00
76108;BME280;64834;52.516;10.528;2023-07-02T00:10:47;99847.34;;;15.19;100.00
76108;BME280;64834;52.516;10.528;2023-07-02T00:13:14;99844.81;;;15.22;100.00
76108;BME280;64834;52.516;10.528;2023-07-02T00:15:39;99840.34;;;15.20;100.00
76108;BME280;64834;52.516;10.528;2023-07-02T00:18:04;99835.75;;;15.11;100.00
76108;BME280;64834;52.516;10.528;2023-07-02T00:20:30;99833.97;;;15.10;100.00
76108;BME280;64834;52.516;10.528;2023-07-02T00:23:00;99832.25;;;15.12;100.00
76108;BME280;64834;52.516;10.528;2023-07-02T00:25:25;99838.56;;;15.19;100.00
76108;BME280;64834;52.516;10.528;2023-07-02T00:27:50;99836.84;;;15.21;100.00
76108;BME280;64834;52.516;10.528;2023-07-02T00:30:16;99825.31;;;15.16;100.00
76108;BME280;64834;52.516;10.528;2023-07-02T00:32:41;99828.78;;;15.15;100.00
76108;BME280;64834;52.516;10.528;2023-07-02T00:35:06;99842.09;;;15.21;100.00
76108;BME280;64834;52.516;10.528;2023-07-02T00:37:32;99835.94;;;15.20;100.00
76108;BME280;64834;52.516;10.528;2023-07-02T00:39:57;99834.97;;;15.15;100.00
76108;BME280;64834;52.516;10.528;2023-07-02T00:42:22;99827.13;;;15.18;100.00
76108;BME280;64834;52.516;10.528;2023-07-02T00:44:49;99821.97;;;15.23;100.00
76108;BME280;64834;52.516;10.528;2023-07-02T00:47:17;99825.50;;;15.23;100.00
76108;BME280;64834;52.516;10.528;2023-07-02T00:49:42;99821.75;;;15.14;100.00
76108;BME280;64834;52.516;10.528;2023-07-02T00:52:08;99821.88;;;15.20;100.00
76108;BME280;64834;52.516;10.528;2023-07-02T00:54:33;99822.84;;;15.23;100.00
76108;BME280;64834;52.516;10.528;2023-07-02T00:56:58;99826.38;;;15.24;100.00
76108;BME280;64834;52.516;10.528;2023-07-02T00:59:28;99828.84;;;15.16;100.00
76108;BME280;64834;52.516;10.528;2023-07-02T01:01:54;99831.66;;;15.24;100.00
76108;BME280;64834;52.516;10.528;2023-07-02T01:04:22;99827.25;;;15.24;100.00
76108;BME280;64834;52.516;10.528;2023-07-02T01:06:53;99838.59;;;15.20;100.00
76108;BME280;64834;52.516;10.528;2023-07-02T01:09:23;99825.34;;;15.17;100.00
76108;BME280;64834;52.516;10.528;2023-07-02T01:11:53;99833.13;;;15.11;100.00
76108;BME280;64834;52.516;10.528;2023-07-02T01:14:36;99829.56;;;15.09;100.00
76108;BME280;64834;52.516;10.528;2023-07-02T01:17:03;99832.19;;;15.09;100.00
76108;BME280;64834;52.516;10.528;2023-07-02T01:19:41;99832.81;;;14.99;100.00
76108;BME280;64834;52.516;10.528;2023-07-02T01:22:07;99831.22;;;15.05;100.00
76108;BME280;64834;52.516;10.528;2023-07-02T01:24:33;99833.53;;;14.92;100.00
76108;BME280;64834;52.516;10.528;2023-07-02T01:26:59;99838.81;;;14.92;100.00
76108;BME280;64834;52.516;10.528;2023-07-02T01:29:28;99832.50;;;14.85;100.00
76108;BME280;64834;52.516;10.528;2023-07-02T01:31:54;99836.63;;;14.75;100.00
76108;BME280;64834;52.516;10.528;2023-07-02T01:34:19;99841.28;;;14.86;100.00
76108;BME280;64834;52.516;10.528;2023-07-02T01:36:45;99836.00;;;14.84;100.00
76108;BME280;64834;52.516;10.528;2023-07-02T01:39:10;99836.88;;;14.84;100.00
76108;BME280;64834;52.516;10.528;2023-07-02T01:41:53;99827.09;;;14.80;100.00
76108;BME280;64834;52.516;10.528;2023-07-02T01:44:19;99823.28;;;14.68;100.00
76108;BME280;64834;52.516;10.528;2023-07-02T01:46:45;99832.19;;;14.73;100.00
76108;BME280;64834;52.516;10.528;2023-07-02T01:49:18;99830.47;;;14.75;100.00
76108;BME280;64834;52.516;10.528;2023-07-02T01:51:45;99825.06;;;14.69;100.00
76108;BME280;64834;52.516;10.528;2023-07-02T01:54:10;99825.84;;;14.65;100.00
76108;BME280;64834;52.516;10.528;2023-07-02T01:56:36;99819.41;;;14.53;100.00
76108;BME280;64834;52.516;10.528;2023-07-02T01:59:01;99819.56;;;14.60;100.00
76108;BME280;64834;52.516;10.528;2023-07-02T02:01:26;99817.69;;;14.55;100.00
76108;BME280;64834;52.516;10.528;2023-07-02T02:03:52;99818.72;;;14.61;100.00
76108;BME280;64834;52.516;10.528;2023-07-02T02:06:17;99827.38;;;14.56;100.00
76108;BME280;64834;52.516;10.528;2023-07-02T02:08:42;99841.81;;;14.39;100.00
76108;BME280;64834;52.516;10.528;2023-07-02T02:11:08;99838.59;;;14.49;100.00
76108;BME280;64834;52.516;10.528;2023-07-02T02:13:33;99834.75;;;14.38;100.00
76108;BME280;64834;52.516;10.528;2023-07-02T02:15:58;99838.34;;;14.40;100.00
76108;BME280;64834;52.516;10.528;2023-07-02T02:18:24;99839.28;;;14.44;100.00
76108;BME280;64834;52.516;10.528;2023-07-02T02:20:49;99842.59;;;14.35;100.00
76108;BME280;64834;52.516;10.528;2023-07-02T02:23:14;99842.66;;;14.38;100.00
76108;BME280;64834;52.516;10.528;2023-07-02T02:25:40;99846.00;;;14.32;100.00
76108;BME280;64834;52.516;10.528;2023-07-02T02:28:05;99845.94;;;14.29;100.00
76108;BME280;64834;52.516;10.528;2023-07-02T02:30:30;99852.91;;;14.27;100.00
76108;BME280;64834;52.516;10.528;2023-07-02T02:32:55;99848.91;;;14.09;100.00
76108;BME280;64834;52.516;10.528;2023-07-02T02:35:21;99855.41;;;14.23;100.00
76108;BME280;64834;52.516;10.528;2023-07-02T02:37:47;99854.44;;;14.19;100.00
76108;BME280;64834;52.516;10.528;2023-07-02T02:40:12;99855.44;;;14.24;100.00
76108;BME280;64834;52.516;10.528;2023-07-02T02:42:38;99864.00;;;14.16;100.00
76108;BME280;64834;52.516;10.528;2023-07-02T02:45:04;99858.09;;;14.24;100.00
76108;BME280;64834;52.516;10.528;2023-07-02T02:47:29;99860.00;;;14.30;100.00
76108;BME280;64834;52.516;10.528;2023-07-02T02:49:55;99860.91;;;14.32;100.00
76108;BME280;64834;52.516;10.528;2023-07-02T02:52:20;99857.47;;;14.33;100.00
76108;BME280;64834;52.516;10.528;2023-07-02T02:54:46;99868.75;;;14.29;100.00
76108;BME280;64834;52.516;10.528;2023-07-02T02:57:11;99866.28;;;14.35;100.00
76108;BME280;64834;52.516;10.528;2023-07-02T02:59:36;99856.66;;;14.37;100.00
76108;BME280;64834;52.516;10.528;2023-07-02T03:02:02;99856.66;;;14.37;100.00
76108;BME280;64834;52.516;10.528;2023-07-02T03:04:27;99862.91;;;14.41;100.00
76108;BME280;64834;52.516;10.528;2023-07-02T03:06:53;99863.81;;;14.41;100.00
76108;BME280;64834;52.516;10.528;2023-07-02T03:09:19;99862.13;;;14.45;100.00
76108;BME280;64834;52.516;10.528;2023-07-02T03:11:46;99859.59;;;14.46;100.00
76108;BME280;64834;52.516;10.528;2023-07-02T03:14:11;99864.88;;;14.46;100.00
76108;BME280;64834;52.516;10.528;2023-07-02T03:16:36;99855.22;;;14.47;100.00
76108;BME280;64834;52.516;10.528;2023-07-02T03:19:02;99862.31;;;14.51;100.00
76108;BME280;64834;52.516;10.528;2023-07-02T03:21:28;99854.41;;;14.49;100.00
76108;BME280;64834;52.516;10.528;2023-07-02T03:23:54;99853.53;;;14.50;100.00
76108;BME280;64834;52.516;10.528;2023-07-02T03:26:20;99860.56;;;14.50;100.00
76108;BME280;64834;52.516;10.528;2023-07-02T03:28:46;99867.41;;;14.45;100.00
76108;BME280;64834;52.516;10.528;2023-07-02T03:31:11;99869.94;;;14.40;100.00
76108;BME280;64834;52.516;10.528;2023-07-02T03:33:37;99874.25;;;14.38;100.00
76108;BME280;64834;52.516;10.528;2023-07-02T03:36:02;99875.97;;;14.38;100.00
76108;BME280;64834;52.516;10.528;2023-07-02T03:38:27;99883.03;;;14.39;100.00
76108;BME280;64834;52.516;10.528;2023-07-02T03:40:53;99882.13;;;14.38;100.00
76108;BME280;64834;52.516;10.528;2023-07-02T03:43:18;99884.78;;;14.38;100.00
76108;BME280;64834;52.516;10.528;2023-07-02T03:45:43;99883.84;;;14.36;100.00
76108;BME280;64834;52.516;10.528;2023-07-02T03:48:09;99880.34;;;14.37;100.00
76108;BME280;64834;52.516;10.528;2023-07-02T03:50:34;99883.78;;;14.33;100.00
76108;BME280;64834;52.516;10.528;2023-07-02T03:53:00;99874.06;;;14.32;100.00
76108;BME280;64834;52.516;10.528;2023-07-02T03:55:25;99865.41;;;14.36;100.00
76108;BME280;64834;52.516;10.528;2023-07-02T03:57:50;99867.31;;;14.40;100.00
76108;BME280;64834;52.516;10.528;2023-07-02T04:00:16;99861.94;;;14.37;100.00
76108;BME280;64834;52.516;10.528;2023-07-02T04:02:41;99871.03;;;14.47;100.00
76108;BME280;64834;52.516;10.528;2023-07-02T04:05:06;99864.75;;;14.45;100.00
76108;BME280;64834;52.516;10.528;2023-07-02T04:07:32;99878.91;;;14.47;100.00
76108;BME280;64834;52.516;10.528;2023-07-02T04:09:57;99878.28;;;14.57;100.00
76108;BME280;64834;52.516;10.528;2023-07-02T04:12:22;99879.56;;;14.71;99.96
76108;BME280;64834;52.516;10.528;2023-07-02T04:14:47;99871.88;;;14.80;99.11
76108;BME280;64834;52.516;10.528;2023-07-02T04:17:13;99874.59;;;14.83;99.49
76108;BME280;64834;52.516;10.528;2023-07-02T04:19:38;99882.66;;;14.90;99.29
76108;BME280;64834;52.516;10.528;2023-07-02T04:22:03;99882.41;;;14.80;99.36
76108;BME280;64834;52.516;10.528;2023-07-02T04:24:29;99880.50;;;14.75;99.58
76108;BME280;64834;52.516;10.528;2023-07-02T04:26:54;99871.72;;;14.74;99.36
76108;BME280;64834;52.516;10.528;2023-07-02T04:29:20;99862.19;;;14.79;99.44
76108;BME280;64834;52.516;10.528;2023-07-02T04:31:45;99881.59;;;14.83;100.00
76108;BME280;64834;52.516;10.528;2023-07-02T04:34:10;99886.22;;;14.92;100.00
76108;BME280;64834;52.516;10.528;2023-07-02T04:36:36;99887.94;;;14.90;100.00
76108;BME280;64834;52.516;10.528;2023-07-02T04:39:01;99893.84;;;14.81;100.00
76108;BME280;64834;52.516;10.528;2023-07-02T04:41:26;99888.88;;;14.93;100.00
76108;BME280;64834;52.516;10.528;2023-07-02T04:43:52;99888.97;;;14.96;100.00
76108;BME280;64834;52.516;10.528;2023-07-02T04:46:17;99889.63;;;14.88;100.00
76108;BME280;64834;52.516;10.528;2023-07-02T04:48:43;99885.31;;;14.90;100.00
76108;BME280;64834;52.516;10.528;2023-07-02T04:51:08;99895.72;;;14.85;100.00
76108;BME280;64834;52.516;10.528;2023-07-02T04:53:34;99901.88;;;14.86;100.00
76108;BME280;64834;52.516;10.528;2023-07-02T04:55:59;99902.66;;;14.83;100.00
76108;BME280;64834;52.516;10.528;2023-07-02T04:58:24;99904.41;;;14.82;100.00
76108;BME280;64834;52.516;10.528;2023-07-02T05:00:50;99905.38;;;14.86;100.00
76108;BME280;64834;52.516;10.528;2023-07-02T05:03:15;99901.16;;;14.93;100.00
76108;BME280;64834;52.516;10.528;2023-07-02T05:05:40;99887.13;;;14.94;100.00
76108;BME280;64834;52.516;10.528;2023-07-02T05:08:06;99884.63;;;14.98;99.44
76108;BME280;64834;52.516;10.528;2023-07-02T05:10:32;99879.38;;;15.00;99.57
76108;BME280;64834;52.516;10.528;2023-07-02T05:12:57;99889.19;;;15.05;99.32
76108;BME280;64834;52.516;10.528;2023-07-02T05:15:23;99883.00;;;15.03;99.74
76108;BME280;64834;52.516;10.528;2023-07-02T05:17:49;99875.84;;;14.98;99.88
76108;BME280;64834;52.516;10.528;2023-07-02T05:20:14;99875.00;;;15.00;100.00
76108;BME280;64834;52.516;10.528;2023-07-02T05:22:39;99883.03;;;15.05;99.86
76108;BME280;64834;52.516;10.528;2023-07-02T05:25:05;99883.94;;;15.07;100.00
76108;BME280;64834;52.516;10.528;2023-07-02T05:27:30;99890.19;;;15.10;100.00
76108;BME280;64834;52.516;10.528;2023-07-02T05:29:56;99881.16;;;15.01;100.00
76108;BME280;64834;52.516;10.528;2023-07-02T05:32:21;99879.47;;;15.03;100.00
76108;BME280;64834;52.516;10.528;2023-07-02T05:34:47;99882.19;;;15.07;100.00
76108;BME280;64834;52.516;10.528;2023-07-02T05:37:12;99893.59;;;15.06;100.00
76108;BME280;64834;52.516;10.528;2023-07-02T05:39:37;99883.00;;;15.03;100.00
76108;BME280;64834;52.516;10.528;2023-07-02T05:42:03;99879.63;;;15.09;100.00
76108;BME280;64834;52.516;10.528;2023-07-02T05:44:29;99887.63;;;15.14;100.00
76108;BME280;64834;52.516;10.528;2023-07-02T05:46:54;99884.94;;;15.10;100.00
76108;BME280;64834;52.516;10.528;2023-07-02T05:49:19;99896.53;;;15.19;100.00
76108;BME280;64834;52.516;10.528;2023-07-02T05:51:44;99894.06;;;15.25;100.00
76108;BME280;64834;52.516;10.528;2023-07-02T05:54:10;99890.63;;;15.27;100.00
76108;BME280;64834;52.516;10.528;2023-07-02T05:56:35;99890.88;;;15.39;100.00
76108;BME280;64834;52.516;10.528;2023-07-02T05:59:00;99895.59;;;15.53;100.00
76108;BME280;64834;52.516;10.528;2023-07-02T06:01:26;99900.88;;;15.53;99.21
76108;BME280;64834;52.516;10.528;2023-07-02T06:03:51;99901.84;;;15.58;99.08
76108;BME280;64834;52.516;10.528;2023-07-02T06:06:17;99901.38;;;15.74;98.57
76108;BME280;64834;52.516;10.528;2023-07-02T06:08:42;99916.63;;;15.89;97.55
76108;BME280;64834;52.516;10.528;2023-07-02T06:11:09;99902.72;;;15.96;96.99
76108;BME280;64834;52.516;10.528;2023-07-02T06:13:35;99910.59;;;15.95;96.40
76108;BME280;64834;52.516;10.528;2023-07-02T06:16:00;99906.38;;;16.03;95.59
76108;BME280;64834;52.516;10.528;2023-07-02T06:18:25;99902.13;;;16.09;96.00
76108;BME280;64834;52.516;10.528;2023-07-02T06:20:51;99904.34;;;16.33;95.08
76108;BME280;64834;52.516;10.528;2023-07-02T06:23:16;99902.28;;;16.62;93.21
76108;BME280;64834;52.516;10.528;2023-07-02T06:25:41;99910.56;;;16.81;92.33
76108;BME280;64834;52.516;10.528;2023-07-02T06:28:06;99905.41;;;16.87;90.91
76108;BME280;64834;52.516;10.528;2023-07-02T06:30:32;99907.81;;;16.75;89.87
76108;BME280;64834;52.516;10.528;2023-07-02T06:32:57;99902.97;;;16.99;88.42
76108;BME280;64834;52.516;10.528;2023-07-02T06:35:22;99910.03;;;17.00;86.76
76108;BME280;64834;52.516;10.528;2023-07-02T06:37:48;99902.28;;;17.11;84.02
76108;BME280;64834;52.516;10.528;2023-07-02T06:40:13;99917.06;;;16.99;85.98
76108;BME280;64834;52.516;10.528;2023-07-02T06:42:40;99915.00;;;16.82;84.85
76108;BME280;64834;52.516;10.528;2023-07-02T06:45:06;99919.09;;;16.67;85.47
76108;BME280;64834;52.516;10.528;2023-07-02T06:47:31;99915.06;;;16.85;84.87
76108;BME280;64834;52.516;10.528;2023-07-02T06:49:56;99921.69;;;17.13;83.67
76108;BME280;64834;52.516;10.528;2023-07-02T06:52:23;99928.81;;;17.17;81.22
76108;BME280;64834;52.516;10.528;2023-07-02T06:54:48;99924.78;;;17.40;80.50
76108;BME280;64834;52.516;10.528;2023-07-02T06:57:13;99932.47;;;17.25;80.27
76108;BME280;64834;52.516;10.528;2023-07-02T06:59:39;99929.31;;;17.47;80.40
76108;BME280;64834;52.516;10.528;2023-07-02T07:02:04;99938.13;;;18.05;77.33
76108;BME280;64834;52.516;10.528;2023-07-02T07:04:30;99923.50;;;17.71;76.28
76108;BME280;64834;52.516;10.528;2023-07-02T07:06:55;99925.22;;;17.68;77.08
76108;BME280;64834;52.516;10.528;2023-07-02T07:09:21;99937.16;;;18.00;78.02
76108;BME280;64834;52.516;10.528;2023-07-02T07:11:46;99931.22;;;18.18;76.42
76108;BME280;64834;52.516;10.528;2023-07-02T07:14:12;99935.38;;;17.98;76.44
76108;BME280;64834;52.516;10.528;2023-07-02T07:16:37;99928.75;;;17.70;77.19
76108;BME280;64834;52.516;10.528;2023-07-02T07:19:02;99939.31;;;17.67;75.36
76108;BME280;64834;52.516;10.528;2023-07-02T07:21:28;99934.59;;;18.06;74.93
76108;BME280;64834;52.516;10.528;2023-07-02T07:23:53;99928.91;;;18.47;71.11
76108;BME280;64834;52.516;10.528;2023-07-02T07:26:19;99942.19;;;18.50;71.86
76108;BME280;64834;52.516;10.528;2023-07-02T07:28:44;99934.59;;;18.05;67.94
76108;BME280;64834;52.516;10.528;2023-07-02T07:31:09;99943.53;;;18.16;68.60
76108;BME280;64834;52.516;10.528;2023-07-02T07:33:35;99939.16;;;18.18;70.41
76108;BME280;64834;52.516;10.528;2023-07-02T07:36:00;99951.69;;;18.33;67.11
76108;BME280;64834;52.516;10.528;2023-07-02T07:38:26;99948.88;;;18.19;66.40
76108;BME280;64834;52.516;10.528;2023-07-02T07:40:51;99950.59;;;18.89;65.65
76108;BME280;64834;52.516;10.528;2023-07-02T07:43:16;99949.31;;;18.54;64.51
76108;BME280;64834;52.516;10.528;2023-07-02T07:45:42;99953.78;;;17.90;65.82
76108;BME280;64834;52.516;10.528;2023-07-02T07:48:07;99946.31;;;17.65;65.30
76108;BME280;64834;52.516;10.528;2023-07-02T07:50:33;99956.38;;;17.31;66.61
76108;BME280;64834;52.516;10.528;2023-07-02T07:52:58;99957.28;;;17.33;67.65
76108;BME280;64834;52.516;10.528;2023-07-02T07:55:24;99964.09;;;17.72;68.02
76108;BME280;64834;52.516;10.528;2023-07-02T07:57:49;99954.41;;;17.72;66.24
76108;BME280;64834;52.516;10.528;2023-07-02T08:00:15;99964.88;;;17.66;66.67
76108;BME280;64834;52.516;10.528;2023-07-02T08:02:42;99959.44;;;17.59;62.51
76108;BME280;64834;52.516;10.528;2023-07-02T08:05:08;99975.28;;;17.54;64.07
76108;BME280;64834;52.516;10.528;2023-07-02T08:07:33;99970.50;;;17.32;64.52
76108;BME280;64834;52.516;10.528;2023-07-02T08:09:59;99976.44;;;17.71;63.94
76108;BME280;64834;52.516;10.528;2023-07-02T08:12:25;99973.44;;;17.50;63.82
76108;BME280;64834;52.516;10.528;2023-07-02T08:14:55;99971.00;;;17.62;64.74
76108;BME280;64834;52.516;10.528;2023-07-02T08:17:20;99991.31;;;17.65;65.79
76108;BME280;64834;52.516;10.528;2023-07-02T08:19:46;99991.88;;;17.45;65.38
76108;BME280;64834;52.516;10.528;2023-07-02T08:22:12;99975.91;;;17.39;64.74
76108;BME280;64834;52.516;10.528;2023-07-02T08:24:37;99979.50;;;17.44;64.92
76108;BME280;64834;52.516;10.528;2023-07-02T08:27:03;99976.66;;;17.31;64.67
76108;BME280;64834;52.516;10.528;2023-07-02T08:29:32;99991.88;;;18.01;65.07
76108;BME280;64834;52.516;10.528;2023-07-02T08:31:58;99994.63;;;18.74;61.13
76108;BME280;64834;52.516;10.528;2023-07-02T08:34:23;99990.94;;;18.65;59.67
76108;BME280;64834;52.516;10.528;2023-07-02T08:36:49;99994.47;;;18.62;58.10
76108;BME280;64834;52.516;10.528;2023-07-02T08:39:14;99991.78;;;18.60;56.21
76108;BME280;64834;52.516;10.528;2023-07-02T08:41:47;100008.59;;;18.61;58.14
76108;BME280;64834;52.516;10.528;2023-07-02T08:44:14;100003.41;;;18.69;55.94
76108;BME280;64834;52.516;10.528;2023-07-02T08:46:40;99999.19;;;18.86;56.88
76108;BME280;64834;52.516;10.528;2023-07-02T08:49:07;100007.38;;;18.36;55.94
76108;BME280;64834;52.516;10.528;2023-07-02T08:51:32;100004.34;;;18.09;56.09
76108;BME280;64834;52.516;10.528;2023-07-02T08:53:57;100008.44;;;17.85;57.26
76108;BME280;64834;52.516;10.528;2023-07-02T08:56:23;100016.38;;;17.85;57.33
76108;BME280;64834;52.516;10.528;2023-07-02T08:58:49;100020.13;;;18.01;56.75
76108;BME280;64834;52.516;10.528;2023-07-02T09:01:14;100021.78;;;17.94;57.13
76108;BME280;64834;52.516;10.528;2023-07-02T09:03:40;100026.13;;;17.89;57.29
76108;BME280;64834;52.516;10.528;2023-07-02T09:06:07;100021.63;;;17.84;57.08
76108;BME280;64834;52.516;10.528;2023-07-02T09:08:33;100029.50;;;17.79;57.75
76108;BME280;64834;52.516;10.528;2023-07-02T09:11:12;100035.81;;;17.89;58.02
76108;BME280;64834;52.516;10.528;2023-07-02T09:13:48;100037.59;;;17.90;57.74
76108;BME280;64834;52.516;10.528;2023-07-02T09:16:30;100044.28;;;17.66;58.33
76108;BME280;64834;52.516;10.528;2023-07-02T09:19:06;100050.34;;;17.61;58.52
76108;BME280;64834;52.516;10.528;2023-07-02T09:21:40;100033.44;;;18.05;54.96
76108;BME280;64834;52.516;10.528;2023-07-02T09:24:20;100047.00;;;18.97;55.49
76108;BME280;64834;52.516;10.528;2023-07-02T09:26:49;100038.16;;;18.95;52.51
76108;BME280;64834;52.516;10.528;2023-07-02T09:29:18;100030.63;;;18.58;52.65
76108;BME280;64834;52.516;10.528;2023-07-02T09:31:46;100035.91;;;18.58;55.61
76108;BME280;64834;52.516;10.528;2023-07-02T09:34:12;100034.22;;;18.64;53.67
76108;BME280;64834;52.516;10.528;2023-07-02T09:36:38;100029.22;;;18.86;52.55
76108;BME280;64834;52.516;10.528;2023-07-02T09:39:08;100025.91;;;19.07;51.61
76108;BME280;64834;52.516;10.528;2023-07-02T09:41:34;100015.66;;;19.46;50.61
76108;BME280;64834;52.516;10.528;2023-07-02T09:44:00;100035.00;;;19.31;48.13
76108;BME280;64834;52.516;10.528;2023-07-02T09:46:26;100040.66;;;18.81;49.48
76108;BME280;64834;52.516;10.528;2023-07-02T09:48:52;100041.47;;;18.77;51.95
76108;BME280;64834;52.516;10.528;2023-07-02T09:51:17;100050.75;;;18.43;51.04
76108;BME280;64834;52.516;10.528;2023-07-02T09:53:43;100054.72;;;18.12;52.60
76108;BME280;64834;52.516;10.528;2023-07-02T09:56:08;100051.09;;;18.67;52.55
76108;BME280;64834;52.516;10.528;2023-07-02T09:58:34;100043.94;;;18.66;51.65
76108;BME280;64834;52.516;10.528;2023-07-02T10:01:00;100055.34;;;18.57;51.52
76108;BME280;64834;52.516;10.528;2023-07-02T10:03:30;100065.25;;;18.71;52.01
76108;BME280;64834;52.516;10.528;2023-07-02T10:06:07;100062.34;;;18.52;52.50
76108;BME280;64834;52.516;10.528;2023-07-02T10:08:32;100073.09;;;18.02;53.21
76108;BME280;64834;52.516;10.528;2023-07-02T10:11:10;100065.72;;;17.83;54.03
76108;BME280;64834;52.516;10.528;2023-07-02T10:13:37;100047.28;;;17.88;54.23
76108;BME280;64834;52.516;10.528;2023-07-02T10:16:03;100068.88;;;18.15;53.13
76108;BME280;64834;52.516;10.528;2023-07-02T10:18:29;100079.09;;;18.48;52.06
76108;BME280;64834;52.516;10.528;2023-07-02T10:20:54;100065.66;;;19.04;50.34
76108;BME280;64834;52.516;10.528;2023-07-02T10:23:20;100077.31;;;19.19;50.46
76108;BME280;64834;52.516;10.528;2023-07-02T10:25:45;100063.41;;;19.43;48.91
76108;BME280;64834;52.516;10.528;2023-07-02T10:28:16;100078.81;;;18.94;51.24
76108;BME280;64834;52.516;10.528;2023-07-02T10:30:42;100075.03;;;18.75;51.69
76108;BME280;64834;52.516;10.528;2023-07-02T10:33:15;100067.97;;;18.74;51.62
76108;BME280;64834;52.516;10.528;2023-07-02T10:35:42;100074.31;;;18.88;52.20
76108;BME280;64834;52.516;10.528;2023-07-02T10:38:23;100078.41;;;19.37;50.95
76108;BME280;64834;52.516;10.528;2023-07-02T10:40:56;100067.03;;;19.52;51.22
76108;BME280;64834;52.516;10.528;2023-07-02T10:43:29;100073.31;;;19.60;51.85
76108;BME280;64834;52.516;10.528;2023-07-02T10:45:55;100078.69;;;19.66;47.02
76108;BME280;64834;52.516;10.528;2023-07-02T10:48:21;100092.47;;;19.30;47.69
76108;BME280;64834;52.516;10.528;2023-07-02T10:50:46;100083.28;;;18.99;49.15
76108;BME280;64834;52.516;10.528;2023-07-02T10:53:16;100085.59;;;18.72;49.65
76108;BME280;64834;52.516;10.528;2023-07-02T10:55:42;100078.47;;;18.68;50.70
76108;BME280;64834;52.516;10.528;2023-07-02T10:58:08;100071.31;;;18.62;50.65
76108;BME280;64834;52.516;10.528;2023-07-02T11:00:48;100076.50;;;18.54;50.30
76108;BME280;64834;52.516;10.528;2023-07-02T11:03:20;100082.81;;;18.64;50.50
76108;BME280;64834;52.516;10.528;2023-07-02T11:05:47;100086.22;;;19.25;51.10
76108;BME280;64834;52.516;10.528;2023-07-02T11:08:12;100075.25;;;19.75;48.89
76108;BME280;64834;52.516;10.528;2023-07-02T11:10:38;100064.69;;;19.84;48.35
76108;BME280;64834;52.516;10.528;2023-07-02T11:13:17;100068.00;;;19.59;46.80
76108;BME280;64834;52.516;10.528;2023-07-02T11:15:43;100065.25;;;19.51;46.96
76108;BME280;64834;52.516;10.528;2023-07-02T11:18:16;100058.44;;;19.75;46.04
76108;BME280;64834;52.516;10.528;2023-07-02T11:20:44;100070.88;;;19.85;48.18
76108;BME280;64834;52.516;10.528;2023-07-02T11:23:36;100083.69;;;19.36;47.35
76108;BME280;64834;52.516;10.528;2023-07-02T11:26:02;100074.63;;;19.16;46.56
76108;BME280;64834;52.516;10.528;2023-07-02T11:28:30;100086.81;;;18.98;46.92
76108;BME280;64834;52.516;10.528;2023-07-02T11:30:56;100094.78;;;19.00;47.30
76108;BME280;64834;52.516;10.528;2023-07-02T11:33:41;100079.97;;;20.11;45.70
76108;BME280;64834;52.516;10.528;2023-07-02T11:36:07;100079.13;;;20.20;45.61
76108;BME280;64834;52.516;10.528;2023-07-02T11:38:34;100073.19;;;20.58;44.20
76108;BME280;64834;52.516;10.528;2023-07-02T11:41:02;100090.03;;;20.63;45.07
76108;BME280;64834;52.516;10.528;2023-07-02T11:43:28;100077.94;;;19.81;44.84
76108;BME280;64834;52.516;10.528;2023-07-02T11:45:53;100079.13;;;20.18;44.43
76108;BME280;64834;52.516;10.528;2023-07-02T11:48:18;100085.63;;;20.63;46.02
76108;BME280;64834;52.516;10.528;2023-07-02T11:50:44;100079.97;;;20.13;43.33
76108;BME280;64834;52.516;10.528;2023-07-02T11:53:09;100085.19;;;20.02;45.44
76108;BME280;64834;52.516;10.528;2023-07-02T11:55:35;100078.28;;;20.24;45.57
76108;BME280;64834;52.516;10.528;2023-07-02T11:58:01;100075.88;;;20.62;44.45
76108;BME280;64834;52.516;10.528;2023-07-02T12:00:26;100075.81;;;20.53;44.09
76108;BME280;64834;52.516;10.528;2023-07-02T12:02:52;100096.22;;;20.60;42.90
76108;BME280;64834;52.516;10.528;2023-07-02T12:05:17;100089.72;;;20.17;43.84
76108;BME280;64834;52.516;10.528;2023-07-02T12:07:42;100086.91;;;19.96;44.38
76108;BME280;64834;52.516;10.528;2023-07-02T12:10:08;100088.81;;;20.15;44.28
76108;BME280;64834;52.516;10.528;2023-07-02T12:12:33;100080.88;;;20.18;44.73
76108;BME280;64834;52.516;10.528;2023-07-02T12:14:58;100097.84;;;20.41;45.36
76108;BME280;64834;52.516;10.528;2023-07-02T12:17:23;100085.44;;;20.37;43.43
76108;BME280;64834;52.516;10.528;2023-07-02T12:19:49;100098.59;;;20.22;42.86
76108;BME280;64834;52.516;10.528;2023-07-02T12:22:14;100088.25;;;20.57;43.42
76108;BME280;64834;52.516;10.528;2023-07-02T12:24:43;100093.38;;;20.33;43.26
76108;BME280;64834;52.516;10.528;2023-07-02T12:27:08;100075.41;;;19.98;44.22
76108;BME280;64834;52.516;10.528;2023-07-02T12:29:35;100094.13;;;20.13;44.08
76108;BME280;64834;52.516;10.528;2023-07-02T12:32:00;100099.56;;;20.35;43.20
76108;BME280;64834;52.516;10.528;2023-07-02T12:34:26;100110.66;;;19.76;44.34
76108;BME280;64834;52.516;10.528;2023-07-02T12:36:51;100116.56;;;19.49;46.09
76108;BME280;64834;52.516;10.528;2023-07-02T12:39:17;100123.38;;;19.28;47.31